Time;durP1;ratioP1;P1;durP2;ratioP2;P2;SDS_P1;SDS_P2;PMS_P1;PMS_P2;Temp;Humidity;BMP_temperature;BMP_pressure;BME280_temperature;BME280_humidity;BME280_pressure;Samples;Min_cycle;Max_cycle;Signal;HPM_P1;HPM_P2
2022/11/19 04:01:03;;;;;;;;;;;18.70;51.50;;;;;;5697567;23;44732;-71
2022/11/19 04:03:29;;;;;;;;;;;18.70;51.60;;;;;;4930383;28;45251;-67
2022/11/19 04:05:54;;;;;;;;;;;18.70;51.60;;;;;;4968178;28;45613;-65
2022/11/19 04:08:20;;;;;;;;;;;18.70;51.60;;;;;;4940397;28;46608;-67
2022/11/19 04:10:45;;;;;;;;;;;18.70;51.60;;;;;;4970601;28;45019;-63
2022/11/19 04:13:11;;;;;;;;;;;18.70;51.60;;;;;;4971132;28;45115;-63
2022/11/19 04:15:36;;;;;;;;;;;18.70;51.60;;;;;;4978204;28;45052;-63
2022/11/19 04:18:02;;;;;;;;;;;18.70;51.60;;;;;;4962364;28;46233;-65
2022/11/19 04:20:27;;;;;;;;;;;18.70;51.60;;;;;;4971785;28;44940;-66
2022/11/19 04:22:53;;;;;;;;;;;18.70;51.60;;;;;;4966328;28;45044;-63
2022/11/19 04:25:18;;;;;;;;;;;18.60;52.20;;;;;;4974633;28;44926;-64
2022/11/19 04:27:44;;;;;;;;;;;18.60;51.60;;;;;;4954922;28;47332;-69
2022/11/19 04:30:10;;;;;;;;;;;18.60;51.60;;;;;;4973930;28;45037;-62
2022/11/19 04:32:36;;;;;;;;;;;18.60;51.60;;;;;;4974660;28;44750;-64
2022/11/19 04:35:01;;;;;;;;;;;18.60;51.60;;;;;;4974067;28;45113;-63
2022/11/19 04:37:27;;;;;;;;;;;18.60;51.60;;;;;;4970735;28;45932;-67
2022/11/19 04:39:52;;;;;;;;;;;18.60;51.60;;;;;;4975431;28;44924;-60
2022/11/19 04:42:17;;;;;;;;;;;18.60;51.60;;;;;;4973244;28;45075;-67
2022/11/19 04:44:43;;;;;;;;;;;18.60;51.60;;;;;;4970892;28;44657;-62
2022/11/19 04:47:09;;;;;;;;;;;18.60;51.60;;;;;;4956597;28;45156;-67
2022/11/19 04:49:34;;;;;;;;;;;18.60;51.60;;;;;;4972941;28;44777;-66
2022/11/19 04:52:00;;;;;;;;;;;18.50;51.60;;;;;;4962854;28;44687;-63
2022/11/19 04:54:25;;;;;;;;;;;18.50;51.60;;;;;;4974823;28;45085;-68
2022/11/19 04:56:51;;;;;;;;;;;18.50;51.60;;;;;;4971553;28;46123;-66
2022/11/19 04:59:16;;;;;;;;;;;18.50;51.60;;;;;;4963320;28;45026;-66
2022/11/19 05:01:42;;;;;;;;;;;18.50;51.60;;;;;;4967637;28;44940;-65
2022/11/19 05:04:08;;;;;;;;;;;18.50;51.60;;;;;;4971921;28;44992;-66
2022/11/19 05:06:33;;;;;;;;;;;18.40;51.60;;;;;;4966922;28;46088;-63
2022/11/19 05:08:59;;;;;;;;;;;18.50;51.70;;;;;;4969960;28;45128;-64
2022/11/19 05:11:24;;;;;;;;;;;18.50;51.70;;;;;;4968763;28;44873;-68
2022/11/19 05:13:50;;;;;;;;;;;18.50;51.70;;;;;;4974082;28;44823;-63
2022/11/19 05:16:15;;;;;;;;;;;18.50;51.60;;;;;;4945910;28;44928;-64
2022/11/19 05:18:41;;;;;;;;;;;18.40;51.60;;;;;;4961371;28;46460;-62
2022/11/19 05:21:06;;;;;;;;;;;18.40;51.60;;;;;;4969187;28;44948;-64
2022/11/19 05:23:32;;;;;;;;;;;18.40;51.70;;;;;;4972968;28;44679;-62
2022/11/19 05:25:57;;;;;;;;;;;18.40;51.60;;;;;;4968960;28;45854;-63
2022/11/19 05:28:23;;;;;;;;;;;18.40;51.70;;;;;;4971245;28;45186;-66
2022/11/19 05:30:52;;;;;;;;;;;18.40;51.70;;;;;;4957365;28;45008;-66
2022/11/19 05:33:17;;;;;;;;;;;18.40;51.80;;;;;;4954095;28;44998;-66
2022/11/19 05:35:43;;;;;;;;;;;18.40;51.70;;;;;;4971693;28;46291;-62
2022/11/19 05:38:08;;;;;;;;;;;18.40;51.70;;;;;;4973348;28;44959;-71
2022/11/19 05:40:34;;;;;;;;;;;18.30;52.30;;;;;;4975052;28;44813;-66
2022/11/19 05:43:03;;;;;;;;;;;18.30;51.70;;;;;;4967734;28;44972;-65
2022/11/19 05:45:28;;;;;;;;;;;18.30;51.70;;;;;;4971655;28;44888;-67
2022/11/19 05:47:54;;;;;;;;;;;18.30;51.70;;;;;;4969300;28;44867;-65
2022/11/19 05:50:20;;;;;;;;;;;18.30;51.70;;;;;;4970062;28;44835;-63
2022/11/19 05:52:45;;;;;;;;;;;18.30;51.70;;;;;;4970325;28;45003;-62
2022/11/19 05:55:11;;;;;;;;;;;18.30;51.70;;;;;;4972237;28;47403;-70
2022/11/19 05:57:36;;;;;;;;;;;18.30;51.70;;;;;;4958360;28;45783;-64
2022/11/19 06:00:02;;;;;;;;;;;18.30;51.70;;;;;;4954139;28;45022;-62
2022/11/19 06:02:28;;;;;;;;;;;18.20;51.70;;;;;;4950502;28;44951;-63
2022/11/19 06:04:54;;;;;;;;;;;18.20;51.70;;;;;;4970743;28;46120;-67
2022/11/19 06:07:19;;;;;;;;;;;18.20;51.70;;;;;;4954765;28;44832;-64
2022/11/19 06:09:45;;;;;;;;;;;18.20;51.70;;;;;;4973847;28;45027;-66
2022/11/19 06:12:11;;;;;;;;;;;18.20;51.70;;;;;;4969497;28;45185;-62
2022/11/19 06:14:36;;;;;;;;;;;18.20;51.80;;;;;;4969135;28;45135;-62
2022/11/19 06:17:02;;;;;;;;;;;18.20;51.80;;;;;;4956269;28;44844;-65
2022/11/19 06:19:27;;;;;;;;;;;18.20;51.80;;;;;;4974105;28;45041;-62
2022/11/19 06:21:52;;;;;;;;;;;18.20;51.80;;;;;;4969768;28;44927;-63
2022/11/19 06:24:18;;;;;;;;;;;18.20;51.80;;;;;;4971653;28;46008;-65
2022/11/19 06:26:43;;;;;;;;;;;18.20;51.80;;;;;;4966154;28;45115;-64
2022/11/19 06:29:10;;;;;;;;;;;18.20;51.80;;;;;;4961290;28;45069;-65
2022/11/19 06:31:35;;;;;;;;;;;18.20;51.80;;;;;;4951231;28;44958;-64
2022/11/19 06:34:01;;;;;;;;;;;18.20;51.80;;;;;;4958579;28;45559;-63
2022/11/19 06:36:26;;;;;;;;;;;18.10;51.80;;;;;;4967563;28;45282;-64
2022/11/19 06:38:52;;;;;;;;;;;18.10;51.80;;;;;;4966844;28;44869;-60
2022/11/19 06:41:17;;;;;;;;;;;18.10;51.80;;;;;;4962324;28;44923;-64
2022/11/19 06:43:43;;;;;;;;;;;18.10;51.80;;;;;;4968994;28;46156;-65
2022/11/19 06:46:09;;;;;;;;;;;18.10;51.80;;;;;;4954324;28;44968;-67
2022/11/19 06:48:34;;;;;;;;;;;18.10;51.80;;;;;;4966229;28;44738;-66
2022/11/19 06:51:00;;;;;;;;;;;18.10;51.90;;;;;;4969536;28;45169;-65
2022/11/19 06:53:26;;;;;;;;;;;18.10;51.90;;;;;;4968709;28;45101;-66
2022/11/19 06:56:01;;;;;;;;;;;18.10;51.80;;;;;;4969575;28;44790;-62
2022/11/19 06:58:27;;;;;;;;;;;18.00;51.80;;;;;;4973314;28;44627;-65
2022/11/19 07:00:52;;;;;;;;;;;18.00;51.80;;;;;;4967673;28;45501;-63
2022/11/19 07:03:18;;;;;;;;;;;18.00;51.90;;;;;;4970272;28;44922;-64
2022/11/19 07:05:43;;;;;;;;;;;18.00;51.80;;;;;;4959346;28;44870;-63
2022/11/19 07:08:09;;;;;;;;;;;18.00;51.80;;;;;;4969630;28;45001;-68
2022/11/19 07:10:34;;;;;;;;;;;18.00;51.90;;;;;;4961390;28;44917;-64
2022/11/19 07:13:00;;;;;;;;;;;18.00;51.90;;;;;;4960924;28;45946;-64
2022/11/19 07:15:25;;;;;;;;;;;18.00;51.90;;;;;;4964766;28;45102;-62
2022/11/19 07:17:51;;;;;;;;;;;18.00;51.90;;;;;;4967572;28;45366;-68
2022/11/19 07:20:16;;;;;;;;;;;18.00;51.90;;;;;;4960245;28;45041;-65
2022/11/19 07:22:42;;;;;;;;;;;18.00;51.90;;;;;;4950410;28;45284;-63
2022/11/19 07:25:08;;;;;;;;;;;17.90;51.90;;;;;;4964228;28;44927;-67
2022/11/19 07:27:34;;;;;;;;;;;17.90;51.90;;;;;;4954819;28;45160;-66
2022/11/19 07:29:59;;;;;;;;;;;17.90;51.90;;;;;;4970363;28;44994;-65
2022/11/19 07:32:25;;;;;;;;;;;17.90;51.90;;;;;;4968411;28;45518;-64
2022/11/19 07:34:50;;;;;;;;;;;17.90;51.90;;;;;;4964344;28;45074;-65
2022/11/19 07:37:16;;;;;;;;;;;17.90;51.90;;;;;;4965091;28;44955;-62
2022/11/19 07:39:41;;;;;;;;;;;17.90;51.90;;;;;;4960219;28;45115;-67
2022/11/19 07:44:51;;;;;;;;;;;17.90;51.90;;;;;;4960084;28;44954;-66
2022/11/19 07:47:16;;;;;;;;;;;17.90;51.90;;;;;;4963136;28;45303;-62
2022/11/19 07:49:42;;;;;;;;;;;17.90;52.00;;;;;;4965987;28;45162;-64
2022/11/19 07:52:07;;;;;;;;;;;17.80;51.90;;;;;;4961079;28;46141;-67
2022/11/19 07:54:33;;;;;;;;;;;17.80;51.90;;;;;;4964879;28;44957;-65
2022/11/19 07:56:58;;;;;;;;;;;17.80;51.90;;;;;;4965656;28;45133;-66
2022/11/19 07:59:25;;;;;;;;;;;17.80;51.90;;;;;;4973323;28;44966;-65
2022/11/19 08:01:51;;;;;;;;;;;17.80;52.00;;;;;;4970523;28;46039;-65
2022/11/19 08:04:16;;;;;;;;;;;17.80;52.00;;;;;;4972150;28;45180;-69
2022/11/19 08:06:42;;;;;;;;;;;17.80;51.90;;;;;;4973871;28;45073;-63
2022/11/19 08:09:07;;;;;;;;;;;17.80;51.90;;;;;;4954334;28;46172;-67
2022/11/19 08:11:33;;;;;;;;;;;17.80;51.90;;;;;;4971252;28;46803;-63
2022/11/19 08:14:00;;;;;;;;;;;17.80;52.00;;;;;;4972235;28;45045;-65
2022/11/19 08:19:11;;;;;;;;;;;17.80;52.00;;;;;;4974161;28;45008;-65
2022/11/19 08:21:40;;;;;;;;;;;17.80;52.00;;;;;;4971176;28;46243;-70
2022/11/19 08:24:06;;;;;;;;;;;17.80;52.00;;;;;;4973517;28;45091;-63
2022/11/19 08:26:32;;;;;;;;;;;17.70;51.90;;;;;;4970674;28;44968;-63
2022/11/19 08:28:57;;;;;;;;;;;17.70;51.90;;;;;;4976437;28;45032;-65
2022/11/19 08:31:23;;;;;;;;;;;17.70;51.90;;;;;;4969166;28;45935;-66
2022/11/19 08:33:48;;;;;;;;;;;17.70;51.90;;;;;;4968161;28;45604;-71
2022/11/19 08:36:13;;;;;;;;;;;17.70;51.90;;;;;;4968183;28;44774;-67
2022/11/19 08:38:39;;;;;;;;;;;17.70;52.00;;;;;;4972457;28;45013;-65
2022/11/19 08:43:49;;;;;;;;;;;17.70;52.00;;;;;;4972455;28;44942;-63
2022/11/19 08:46:14;;;;;;;;;;;17.70;52.00;;;;;;4974941;28;45110;-65
2022/11/19 08:48:40;;;;;;;;;;;17.70;52.00;;;;;;4975417;28;44939;-65
2022/11/19 08:51:06;;;;;;;;;;;17.70;52.00;;;;;;4970398;28;45916;-65
2022/11/19 08:53:31;;;;;;;;;;;17.60;52.00;;;;;;4970636;28;44929;-65
2022/11/19 08:55:57;;;;;;;;;;;17.60;52.00;;;;;;4975688;28;44815;-67
2022/11/19 08:58:22;;;;;;;;;;;17.70;52.00;;;;;;4972391;28;45048;-63
2022/11/19 09:00:48;;;;;;;;;;;17.60;51.90;;;;;;4954653;28;46309;-65
2022/11/19 09:03:14;;;;;;;;;;;17.60;52.00;;;;;;4978390;28;45530;-67
2022/11/19 09:05:40;;;;;;;;;;;17.60;52.00;;;;;;4977504;28;45216;-62
2022/11/19 09:08:06;;;;;;;;;;;17.60;52.00;;;;;;4972622;28;45223;-64
2022/11/19 09:10:32;;;;;;;;;;;17.60;52.00;;;;;;4978044;28;46009;-62
2022/11/19 09:12:57;;;;;;;;;;;17.60;52.00;;;;;;4968734;28;45116;-67
2022/11/19 09:15:23;;;;;;;;;;;17.60;52.00;;;;;;4981434;28;45280;-68
2022/11/19 09:17:48;;;;;;;;;;;17.60;52.00;;;;;;4979508;28;44875;-69
2022/11/19 09:20:14;;;;;;;;;;;17.60;52.00;;;;;;4975679;28;46067;-64
2022/11/19 09:22:39;;;;;;;;;;;17.60;52.00;;;;;;4973037;28;46254;-63
2022/11/19 09:25:07;;;;;;;;;;;17.60;52.00;;;;;;4953778;28;45422;-67
2022/11/19 09:27:33;;;;;;;;;;;17.50;51.90;;;;;;4975471;28;45222;-62
2022/11/19 09:29:58;;;;;;;;;;;17.50;52.00;;;;;;4974904;28;46060;-65
2022/11/19 09:32:24;;;;;;;;;;;17.50;52.00;;;;;;4979239;28;45223;-66
2022/11/19 09:34:49;;;;;;;;;;;17.50;52.00;;;;;;4976844;28;45285;-66
2022/11/19 09:37:15;;;;;;;;;;;17.50;52.00;;;;;;4978305;28;45698;-62
2022/11/19 09:39:41;;;;;;;;;;;17.50;52.00;;;;;;4970389;28;46471;-67
2022/11/19 09:42:13;;;;;;;;;;;17.50;52.00;;;;;;4978388;28;45562;-67
2022/11/19 09:44:59;;;;;;;;;;;17.50;52.00;;;;;;4973374;28;45023;-64
2022/11/19 09:47:31;;;;;;;;;;;17.50;52.00;;;;;;4978077;28;44953;-66
2022/11/19 09:49:56;;;;;;;;;;;17.50;52.00;;;;;;4973009;28;46157;-64
2022/11/19 09:52:22;;;;;;;;;;;17.50;52.00;;;;;;4974492;28;44818;-61
2022/11/19 09:54:48;;;;;;;;;;;17.50;52.00;;;;;;4975706;28;44792;-64
2022/11/19 09:57:15;;;;;;;;;;;17.50;52.00;;;;;;4966564;28;45359;-62
2022/11/19 09:59:41;;;;;;;;;;;17.50;52.00;;;;;;4973557;28;46560;-66
2022/11/19 10:02:14;;;;;;;;;;;17.50;52.00;;;;;;4970115;28;45000;-66
2022/11/19 10:04:40;;;;;;;;;;;17.50;52.00;;;;;;4970053;28;45148;-63
2022/11/19 10:07:21;;;;;;;;;;;17.50;52.00;;;;;;4967573;28;45144;-64
2022/11/19 10:10:22;;;;;;;;;;;17.40;52.00;;;;;;4968422;28;45845;-66
2022/11/19 10:13:10;;;;;;;;;;;17.40;52.00;;;;;;4914128;28;45201;-63
2022/11/19 10:15:56;;;;;;;;;;;17.40;52.00;;;;;;4964649;28;45064;-65
2022/11/19 10:18:28;;;;;;;;;;;17.40;52.00;;;;;;4933722;28;45007;-65
2022/11/19 10:21:12;;;;;;;;;;;17.40;52.00;;;;;;4948946;28;45902;-63
2022/11/19 10:23:46;;;;;;;;;;;17.40;52.00;;;;;;4970846;28;45341;-63
2022/11/19 10:26:13;;;;;;;;;;;17.40;52.00;;;;;;4953435;28;45050;-67
2022/11/19 10:28:39;;;;;;;;;;;17.40;51.90;;;;;;4960744;28;45088;-62
2022/11/19 10:31:06;;;;;;;;;;;17.40;52.00;;;;;;4955523;28;45502;-64
2022/11/19 10:33:32;;;;;;;;;;;17.40;52.00;;;;;;4949723;28;45237;-63
2022/11/19 10:36:13;;;;;;;;;;;17.40;52.00;;;;;;4950746;28;44874;-62
2022/11/19 10:38:48;;;;;;;;;;;17.30;51.90;;;;;;4956536;28;45071;-62
2022/11/19 10:41:14;;;;;;;;;;;17.40;52.00;;;;;;4968539;28;45199;-68
2022/11/19 10:43:50;;;;;;;;;;;17.30;51.90;;;;;;4957894;28;44844;-65
2022/11/19 10:46:17;;;;;;;;;;;17.40;52.00;;;;;;4969668;28;45015;-66
2022/11/19 10:48:43;;;;;;;;;;;17.30;51.90;;;;;;4951862;28;45090;-68
2022/11/19 10:51:22;;;;;;;;;;;17.30;51.90;;;;;;4948384;28;46006;-65
2022/11/19 10:53:47;;;;;;;;;;;17.30;51.90;;;;;;4967761;28;46283;-66
2022/11/19 10:56:14;;;;;;;;;;;17.30;51.90;;;;;;4937745;28;45008;-66
2022/11/19 10:58:50;;;;;;;;;;;17.30;51.90;;;;;;4946528;28;45298;-64
2022/11/19 11:01:28;;;;;;;;;;;17.30;52.00;;;;;;4948627;28;44975;-65
2022/11/19 11:04:06;;;;;;;;;;;17.30;51.90;;;;;;4949131;28;45456;-66
2022/11/19 11:07:02;;;;;;;;;;;17.30;51.90;;;;;;4947841;28;45274;-65
2022/11/19 11:09:31;;;;;;;;;;;17.30;51.90;;;;;;4923305;28;45734;-63
2022/11/19 11:14:51;;;;;;;;;;;17.20;51.90;;;;;;4932761;28;45190;-67
2022/11/19 11:17:24;;;;;;;;;;;17.30;51.90;;;;;;4936793;28;45254;-62
2022/11/19 11:20:05;;;;;;;;;;;17.30;51.90;;;;;;4936317;28;45607;-65
2022/11/19 11:22:30;;;;;;;;;;;17.20;51.90;;;;;;4935300;28;46228;-63
2022/11/19 11:24:56;;;;;;;;;;;17.20;51.90;;;;;;4921578;28;45205;-63
2022/11/19 11:27:21;;;;;;;;;;;17.20;51.90;;;;;;4933475;28;45748;-64
2022/11/19 11:29:47;;;;;;;;;;;17.20;51.90;;;;;;4927627;28;45671;-66
2022/11/19 11:32:25;;;;;;;;;;;17.20;51.90;;;;;;4928686;28;45819;-64
2022/11/19 11:34:51;;;;;;;;;;;17.20;51.90;;;;;;4936038;28;45260;-64
2022/11/19 11:37:16;;;;;;;;;;;17.20;51.90;;;;;;4937726;28;45143;-64
2022/11/19 11:39:46;;;;;;;;;;;17.20;51.80;;;;;;4946437;28;44676;-61
2022/11/19 11:42:15;;;;;;;;;;;17.20;51.90;;;;;;4947242;28;46263;-62
2022/11/19 11:44:47;;;;;;;;;;;17.20;51.90;;;;;;4931709;28;45405;-64
2022/11/19 11:47:16;;;;;;;;;;;17.20;51.90;;;;;;4932486;28;45254;-63
2022/11/19 11:49:42;;;;;;;;;;;17.20;51.90;;;;;;4924451;28;44768;-66
2022/11/19 11:52:07;;;;;;;;;;;17.20;51.90;;;;;;4942075;28;45921;-68
2022/11/19 11:54:33;;;;;;;;;;;17.20;51.90;;;;;;4941085;28;45222;-61
2022/11/19 11:57:15;;;;;;;;;;;17.20;51.80;;;;;;4921736;28;45517;-64
2022/11/19 11:59:41;;;;;;;;;;;17.20;51.90;;;;;;4934914;28;45312;-67
2022/11/19 12:02:07;;;;;;;;;;;17.20;51.90;;;;;;4950808;28;46072;-65
2022/11/19 12:04:32;;;;;;;;;;;17.10;51.80;;;;;;4942008;28;44755;-62
2022/11/19 12:07:08;;;;;;;;;;;17.20;51.90;;;;;;4955170;28;45025;-64
2022/11/19 12:09:52;;;;;;;;;;;17.10;51.90;;;;;;4929202;28;45337;-64
2022/11/19 12:12:40;;;;;;;;;;;17.10;51.80;;;;;;4956295;28;46103;-68
2022/11/19 12:15:05;;;;;;;;;;;17.10;51.90;;;;;;4941557;28;45312;-64
2022/11/19 12:17:34;;;;;;;;;;;17.10;51.80;;;;;;4960580;28;45169;-66
2022/11/19 12:20:20;;;;;;;;;;;17.10;51.90;;;;;;4947508;28;45167;-63
2022/11/19 12:22:51;;;;;;;;;;;17.10;51.90;;;;;;4958041;28;47084;-63
2022/11/19 12:25:23;;;;;;;;;;;17.10;51.90;;;;;;4954420;28;45209;-62
2022/11/19 12:28:07;;;;;;;;;;;17.10;51.90;;;;;;4962067;28;44862;-58
2022/11/19 12:30:36;;;;;;;;;;;17.10;51.80;;;;;;4956682;28;46012;-58
2022/11/19 12:33:09;;;;;;;;;;;17.10;51.60;;;;;;4957255;28;46129;-59
2022/11/19 12:35:38;;;;;;;;;;;17.20;51.60;;;;;;4944337;28;45775;-58
2022/11/19 12:38:07;;;;;;;;;;;17.20;51.60;;;;;;4946028;28;44753;-59
2022/11/19 12:40:38;;;;;;;;;;;17.20;51.60;;;;;;4934501;28;45180;-57
2022/11/19 12:43:04;;;;;;;;;;;17.20;51.70;;;;;;4952449;28;45184;-60
2022/11/19 12:45:49;;;;;;;;;;;17.20;51.70;;;;;;4958039;28;44972;-58
2022/11/19 12:48:30;;;;;;;;;;;17.20;51.70;;;;;;4943113;28;45483;-61
2022/11/19 12:50:59;;;;;;;;;;;17.20;51.60;;;;;;4938971;28;46594;-59
2022/11/19 12:53:24;;;;;;;;;;;17.20;51.70;;;;;;4946294;28;45982;-60
2022/11/19 12:55:55;;;;;;;;;;;17.20;51.70;;;;;;4954935;28;45198;-61
2022/11/19 12:58:33;;;;;;;;;;;17.20;51.60;;;;;;4943307;28;45179;-61
2022/11/19 13:01:01;;;;;;;;;;;17.30;51.60;;;;;;4943634;28;44883;-61
2022/11/19 13:03:45;;;;;;;;;;;17.30;51.70;;;;;;4940557;28;46331;-58
2022/11/19 13:06:13;;;;;;;;;;;17.30;51.70;;;;;;4959803;28;45175;-60
2022/11/19 13:08:42;;;;;;;;;;;17.30;51.60;;;;;;4942627;28;45763;-58
2022/11/19 13:11:09;;;;;;;;;;;17.30;51.60;;;;;;4952908;28;46301;-56
2022/11/19 13:13:36;;;;;;;;;;;17.30;51.60;;;;;;4958083;28;46066;-57
2022/11/19 13:16:01;;;;;;;;;;;17.30;51.60;;;;;;4939872;28;46129;-58
2022/11/19 13:18:29;;;;;;;;;;;17.30;51.60;;;;;;4961091;28;44995;-54
2022/11/19 13:20:56;;;;;;;;;;;17.30;51.70;;;;;;4924795;28;44643;-61
2022/11/19 13:23:23;;;;;;;;;;;17.30;51.70;;;;;;4941667;28;46209;-57
2022/11/19 13:26:08;;;;;;;;;;;17.30;51.60;;;;;;4960675;28;44774;-57
2022/11/19 13:28:39;;;;;;;;;;;17.30;51.60;;;;;;4960526;28;45210;-66
2022/11/19 13:31:06;;;;;;;;;;;17.30;51.60;;;;;;4958113;28;45235;-59
2022/11/19 13:33:35;;;;;;;;;;;17.30;51.70;;;;;;4938860;28;45230;-60
2022/11/19 13:36:06;;;;;;;;;;;17.30;51.60;;;;;;4944409;28;44860;-60
2022/11/19 13:38:48;;;;;;;;;;;17.30;51.60;;;;;;4951237;28;45370;-59
2022/11/19 13:41:15;;;;;;;;;;;17.30;51.60;;;;;;4947402;28;44669;-58
2022/11/19 13:46:31;;;;;;;;;;;17.30;51.60;;;;;;4963128;28;45603;-56
2022/11/19 13:48:58;;;;;;;;;;;17.40;51.70;;;;;;4946016;28;45103;-60
2022/11/19 13:51:25;;;;;;;;;;;17.30;51.70;;;;;;4957032;28;44991;-60
2022/11/19 13:53:51;;;;;;;;;;;17.30;51.70;;;;;;4954467;28;47322;-60
2022/11/19 13:56:16;;;;;;;;;;;17.30;51.70;;;;;;4940182;28;45394;-57
2022/11/19 13:58:45;;;;;;;;;;;17.30;51.70;;;;;;4965629;28;45379;-59
2022/11/19 14:01:11;;;;;;;;;;;17.30;51.70;;;;;;4947361;28;44947;-58
2022/11/19 14:03:46;;;;;;;;;;;17.30;51.60;;;;;;4960652;28;46002;-58
2022/11/19 14:06:17;;;;;;;;;;;17.30;51.60;;;;;;4964073;28;44929;-57
2022/11/19 14:08:46;;;;;;;;;;;17.30;51.60;;;;;;4946422;28;45576;-59
2022/11/19 14:11:23;;;;;;;;;;;17.30;51.60;;;;;;4959348;28;45458;-59
2022/11/19 14:26:18;;;;;;;;;;;17.30;51.60;;;;;;4956185;28;45452;-60
2022/11/19 14:28:40;;;;;;;;;;;17.40;51.70;;;;;;4960167;28;45264;-59
2022/11/19 14:31:06;;;;;;;;;;;17.30;51.60;;;;;;4960320;28;46099;-58
2022/11/19 14:33:56;;;;;;;;;;;17.30;51.70;;;;;;4944322;28;45861;-60
2022/11/19 14:36:27;;;;;;;;;;;17.30;51.60;;;;;;4961839;28;46023;-59
2022/11/19 14:38:53;;;;;;;;;;;17.30;51.60;;;;;;4948183;28;45175;-59
2022/11/19 14:41:31;;;;;;;;;;;17.40;51.70;;;;;;4960378;28;44969;-61
2022/11/19 14:44:09;;;;;;;;;;;17.40;51.60;;;;;;4959807;28;46198;-61
2022/11/19 14:46:47;;;;;;;;;;;17.40;51.60;;;;;;4952428;28;45614;-62
2022/11/19 14:49:16;;;;;;;;;;;17.40;51.60;;;;;;4936760;28;45277;-58
2022/11/19 14:51:41;;;;;;;;;;;17.30;51.60;;;;;;4943643;28;45059;-60
2022/11/19 14:54:13;;;;;;;;;;;17.30;51.60;;;;;;4945125;28;45198;-61
2022/11/19 14:56:39;;;;;;;;;;;17.30;51.60;;;;;;4956936;28;46094;-60
2022/11/19 14:59:04;;;;;;;;;;;17.30;51.70;;;;;;4944736;28;45211;-61
2022/11/19 15:01:29;;;;;;;;;;;17.30;51.70;;;;;;4956015;28;45130;-60
2022/11/19 15:03:59;;;;;;;;;;;17.20;51.70;;;;;;4942033;28;45689;-58
2022/11/19 15:06:25;;;;;;;;;;;17.20;51.70;;;;;;4943495;28;46083;-63
2022/11/19 15:08:51;;;;;;;;;;;17.20;51.70;;;;;;4957918;28;45098;-58
2022/11/19 15:11:16;;;;;;;;;;;17.20;51.70;;;;;;4958350;28;45661;-56
2022/11/19 15:13:45;;;;;;;;;;;17.20;51.80;;;;;;4956701;28;45683;-57
2022/11/19 15:16:14;;;;;;;;;;;17.20;51.70;;;;;;4941084;28;45929;-61
2022/11/19 15:18:40;;;;;;;;;;;17.20;51.70;;;;;;4956537;28;45185;-60
2022/11/19 15:21:24;;;;;;;;;;;17.20;51.70;;;;;;4954212;28;46261;-61
2022/11/19 15:24:01;;;;;;;;;;;17.20;51.80;;;;;;4956526;28;45057;-63
2022/11/19 15:26:32;;;;;;;;;;;17.10;51.70;;;;;;4956150;28;45910;-61
2022/11/19 15:29:02;;;;;;;;;;;17.10;51.70;;;;;;4956430;28;45524;-59
2022/11/19 15:31:47;;;;;;;;;;;17.10;51.70;;;;;;4942071;28;44992;-60
2022/11/19 15:34:12;;;;;;;;;;;17.10;51.80;;;;;;4958785;28;46169;-60
2022/11/19 15:36:38;;;;;;;;;;;17.10;51.80;;;;;;4957828;28;46134;-60
2022/11/19 15:39:18;;;;;;;;;;;17.10;51.80;;;;;;4958849;28;45114;-61
2022/11/19 15:41:59;;;;;;;;;;;17.10;51.90;;;;;;4940781;28;44695;-57
2022/11/19 15:44:51;;;;;;;;;;;17.00;51.80;;;;;;4947130;28;45460;-61
2022/11/19 15:47:17;;;;;;;;;;;17.00;51.80;;;;;;4949148;28;45869;-57
2022/11/19 15:49:42;;;;;;;;;;;17.00;51.80;;;;;;4941539;28;45386;-59
2022/11/19 15:52:08;;;;;;;;;;;17.00;51.90;;;;;;4940976;28;44893;-59
2022/11/19 15:54:34;;;;;;;;;;;17.00;51.90;;;;;;4960430;28;44833;-60
2022/11/19 15:57:20;;;;;;;;;;;16.90;51.90;;;;;;4955795;28;46781;-60
2022/11/19 15:59:46;;;;;;;;;;;17.00;52.00;;;;;;4955519;28;44843;-61
2022/11/19 16:02:19;;;;;;;;;;;17.00;52.00;;;;;;4930491;28;45543;-59
2022/11/19 16:04:45;;;;;;;;;;;17.00;52.00;;;;;;4922181;28;45096;-59
2022/11/19 16:07:10;;;;;;;;;;;17.00;52.00;;;;;;4921432;28;45985;-61
2022/11/19 16:09:36;;;;;;;;;;;16.90;51.90;;;;;;4923638;28;45330;-56
2022/11/19 16:17:35;;;;;;;;;;;16.90;52.00;;;;;;4938704;28;46234;-63
2022/11/19 16:20:03;;;;;;;;;;;16.90;52.00;;;;;;4942611;28;44984;-59
2022/11/19 16:22:30;;;;;;;;;;;16.80;52.00;;;;;;4923786;28;45361;-61
2022/11/19 16:25:01;;;;;;;;;;;16.90;52.00;;;;;;4940561;28;44915;-57
2022/11/19 16:27:26;;;;;;;;;;;16.80;52.00;;;;;;4926597;28;45977;-59
2022/11/19 16:29:52;;;;;;;;;;;16.80;52.00;;;;;;4926042;28;45300;-58
2022/11/19 16:32:18;;;;;;;;;;;16.80;52.00;;;;;;4930248;28;44735;-57
2022/11/19 16:34:44;;;;;;;;;;;16.80;52.10;;;;;;4937234;28;47094;-60
2022/11/19 16:37:12;;;;;;;;;;;16.80;52.10;;;;;;4938286;28;46070;-61
2022/11/19 16:39:38;;;;;;;;;;;16.80;52.10;;;;;;4939042;28;45180;-60
2022/11/19 16:42:17;;;;;;;;;;;16.80;52.10;;;;;;4939376;28;45232;-58
2022/11/19 16:44:43;;;;;;;;;;;16.80;52.10;;;;;;4926889;28;45217;-57
2022/11/19 16:47:19;;;;;;;;;;;16.80;52.60;;;;;;4935828;28;46007;-59
2022/11/19 16:49:47;;;;;;;;;;;16.70;52.00;;;;;;4935485;28;45651;-60
2022/11/19 16:52:31;;;;;;;;;;;16.70;52.00;;;;;;4937750;28;45581;-59
2022/11/19 16:54:57;;;;;;;;;;;16.70;52.10;;;;;;4940359;28;45574;-59
2022/11/19 16:57:22;;;;;;;;;;;16.70;52.00;;;;;;4917745;28;46522;-63
2022/11/19 16:59:48;;;;;;;;;;;16.70;52.10;;;;;;4897348;28;45558;-57
2022/11/19 17:02:14;;;;;;;;;;;16.70;52.00;;;;;;4920486;28;45635;-60
2022/11/19 17:04:44;;;;;;;;;;;16.70;52.10;;;;;;4935756;28;45461;-61
2022/11/19 17:07:11;;;;;;;;;;;16.70;52.10;;;;;;4933420;28;45244;-60
2022/11/19 17:09:40;;;;;;;;;;;16.70;52.10;;;;;;4914799;28;44701;-60
2022/11/19 17:12:20;;;;;;;;;;;16.70;52.10;;;;;;4934905;28;45238;-60
2022/11/19 17:14:49;;;;;;;;;;;16.70;52.00;;;;;;4951420;28;45229;-54
2022/11/19 17:17:27;;;;;;;;;;;16.70;52.00;;;;;;4938376;28;46050;-60
2022/11/19 17:19:52;;;;;;;;;;;16.70;52.10;;;;;;4934641;28;45545;-56
2022/11/19 17:22:20;;;;;;;;;;;16.70;52.00;;;;;;4933649;28;44670;-60
2022/11/19 17:24:45;;;;;;;;;;;16.70;52.10;;;;;;4950878;28;45281;-60
2022/11/19 17:27:31;;;;;;;;;;;16.70;52.00;;;;;;4949296;28;45302;-60
2022/11/19 17:30:03;;;;;;;;;;;16.70;52.00;;;;;;4931127;28;45362;-61
2022/11/19 17:32:32;;;;;;;;;;;16.60;52.00;;;;;;4944849;28;45227;-58
2022/11/19 17:34:57;;;;;;;;;;;16.60;52.00;;;;;;4944101;28;45171;-60
2022/11/19 17:37:23;;;;;;;;;;;16.60;52.10;;;;;;4941797;28;46175;-58
2022/11/19 17:39:48;;;;;;;;;;;16.60;52.10;;;;;;4946246;28;45274;-59
2022/11/19 17:44:58;;;;;;;;;;;16.60;52.10;;;;;;4939087;28;45542;-61
2022/11/19 17:47:24;;;;;;;;;;;16.50;52.10;;;;;;4936413;28;45099;-56
2022/11/19 17:49:49;;;;;;;;;;;16.50;52.10;;;;;;4939342;28;45447;-65
2022/11/19 17:52:18;;;;;;;;;;;16.50;52.10;;;;;;4940100;28;45015;-58
2022/11/19 17:54:46;;;;;;;;;;;16.50;52.10;;;;;;4937512;28;45304;-60
2022/11/19 17:57:12;;;;;;;;;;;16.50;52.10;;;;;;4939825;28;46327;-60
2022/11/19 17:59:37;;;;;;;;;;;16.60;52.10;;;;;;4065708;28;10000825;-61
2022/11/19 18:02:02;;;;;;;;;;;16.50;52.10;;;;;;4927684;28;45262;-60
2022/11/19 18:04:31;;;;;;;;;;;16.50;52.10;;;;;;4936703;28;44755;-58
2022/11/19 18:06:56;;;;;;;;;;;16.50;52.10;;;;;;4917881;28;45566;-59
2022/11/19 18:09:22;;;;;;;;;;;16.50;52.10;;;;;;4937164;28;44659;-60
2022/11/19 18:11:47;;;;;;;;;;;16.40;52.10;;;;;;4933679;28;46471;-60
2022/11/19 18:14:12;;;;;;;;;;;16.50;52.20;;;;;;4936094;28;44846;-59
2022/11/19 18:16:39;;;;;;;;;;;16.50;52.20;;;;;;4934560;28;45429;-60
2022/11/19 18:19:11;;;;;;;;;;;16.40;52.10;;;;;;4937496;28;45319;-59
2022/11/19 18:21:37;;;;;;;;;;;16.40;52.10;;;;;;4934751;28;45973;-56
2022/11/19 18:24:03;;;;;;;;;;;16.40;52.20;;;;;;4934120;28;45239;-60
2022/11/19 18:26:28;;;;;;;;;;;16.40;52.20;;;;;;4930215;28;45189;-60
2022/11/19 18:28:55;;;;;;;;;;;16.40;52.50;;;;;;4935260;28;45074;-62
2022/11/19 18:31:21;;;;;;;;;;;16.40;52.20;;;;;;4937203;28;47063;-61
2022/11/19 18:33:47;;;;;;;;;;;16.40;52.20;;;;;;4936362;28;45295;-62
2022/11/19 18:36:13;;;;;;;;;;;16.40;52.30;;;;;;4934464;28;45297;-62
2022/11/19 18:38:38;;;;;;;;;;;16.40;52.30;;;;;;4930187;28;45873;-61
2022/11/19 18:41:04;;;;;;;;;;;16.40;52.20;;;;;;4931655;28;45963;-63
2022/11/19 18:46:14;;;;;;;;;;;16.40;52.20;;;;;;4935497;28;45133;-61
2022/11/19 18:48:39;;;;;;;;;;;16.40;52.20;;;;;;4935243;28;45327;-61
2022/11/19 18:51:05;;;;;;;;;;;16.40;52.20;;;;;;4931908;28;46179;-63
2022/11/19 18:53:30;;;;;;;;;;;16.40;52.20;;;;;;4936260;28;46028;-60
2022/11/19 18:55:56;;;;;;;;;;;16.40;52.20;;;;;;4930981;28;45541;-59
2022/11/19 18:58:21;;;;;;;;;;;16.40;52.20;;;;;;4931300;28;44865;-63
2022/11/19 19:00:47;;;;;;;;;;;16.40;52.20;;;;;;4933627;28;45959;-61